Nouméa, Nouvelle-Calédonie

06:53 NCT le 24 octobre 2014 (GMT +1100)
Port Moselle | Change Station
CLOSE
Current Station
Stations météorologiques personnelles
Location: Nouméa, PROVINCE SUD
Altitude: 33 ft
Stations météo à proximité

Alt. 33 ft 22.28 °S, 166.44 °E | Updated 11 seconds ago

Clear
Ciel dégagé
70.2 ° F
Paraît 75 ° F
N
10.0
Vent Variable Vent de SE
Gusts 24.0 mph

Aujourd'hui
Haut(e) -- | Bas -- ° F
--% Risque de précip.
Hier
Haut(e) -- | Bas -- ° F
Precip. -- pouce
5:15 AM 6:01 PM
Lune descendante, 0% visible
Pression 30.06 pouce
Visibilité 6.2 Miles terrestres
Nuages
indice de chaleur 75 ° F
Point de rosée 59 ° F
Humidité 67%
Précipitations 0.00 pouce
Profondeur de la couche neigeuse Non disponible.
UV Non disponible.
Pollen Non disponible.
Qualité de l'air Non disponible.
Flu Activity Non disponible.
METAR NWWW 231930Z AUTO 00000KT 9999 NCD 18/14 Q1018

More Conditions Fewer Conditions

Pression 30.06 pouce
Visibilité 6.2 Miles terrestres
Nuages
indice de chaleur 75 ° F
Point de rosée 59 ° F
Humidité 67%
Précipitations 0.00 pouce
Profondeur de la couche neigeuse Non disponible.
UV Non disponible.
Pollen Non disponible.
Qualité de l'air Non disponible.
Flu Activity Non disponible.
METAR NWWW 231930Z AUTO 00000KT 9999 NCD 18/14 Q1018

More Conditions Fewer Conditions

10-Day Weather Forecast

Almanac

Astronomie

Oct. 24, 2014 Lever Coucher
Temps réel 05:15 NCT 18:01 NCT
Crépuscule civil 04:52 NCT 18:24 NCT
Crépuscule nautique 04:25 NCT 18:51 NCT
Crépuscule astronomique 03:58 NCT 19:19 NCT
Lune 05:16 NCT (10/24) 18:17 NCT (10/24)
Durée de lumière visible 13h 32m
Longueur du jour
12h 46m
Tomorrow will be 1m 12s longer.
Lune descendante, 0% of the Moon is Illuminated
Oct 23
Lune descendante
Oct 23
Nouveau
Oct 30
Premier quartier
Nov 6
Pleine lune
Nov 14
Dernier quartier

Les extrêmes de température d’hier

Country Highs Country Lows

Community

WunderPhotos

Upload Photos

1,764,350 Photos téléchargées !

WunderBlogs® & News

By Dr. Jeff Masters
Director of Meteorology, Weather Underground
By Kari Strenfel
Meteorologist, Weather Underground
By Christopher C. Burt
Weather Historian, Weather Underground
October 23, 2014
October 23, 2014
October 23, 2014

Nearby

Qualité de l'air

Not available.

Épaisseur de neige

Not available.

Activité sismique

Ville Distance Mag. Time & Date
No recent earthquake activity has been reported nearby.
Minimum magnitude displayed is 2.5.

Températures des eaux côtières

Lieu Température
Aucun rapport de station

Stations météo à proximité